Time;durP1;ratioP1;P1;durP2;ratioP2;P2;SDS_P1;SDS_P2;PMS_P1;PMS_P2;Temp;Humidity;BMP_temperature;BMP_pressure;BME280_temperature;BME280_humidity;BME280_pressure;Samples;Min_cycle;Max_cycle;Signal;HPM_P1;HPM_P2
2021/12/29 00:01:49;;;;;;;4.45;1.30;;;18.50;70.50;;;;;;5038266;28;20052;-82
2021/12/29 00:04:16;;;;;;;4.50;1.38;;;17.40;73.00;;;;;;5035745;28;20040;-84
2021/12/29 00:06:42;;;;;;;3.83;1.27;;;17.30;72.40;;;;;;5035695;28;20048;-84
2021/12/29 00:09:08;;;;;;;3.20;0.90;;;17.30;72.40;;;;;;5036092;28;20079;-84
2021/12/29 00:11:38;;;;;;;4.55;1.10;;;17.30;72.50;;;;;;5036745;28;20037;-86
2021/12/29 00:14:04;;;;;;;5.63;1.67;;;17.20;72.40;;;;;;5038116;28;20505;-85
2021/12/29 00:16:34;;;;;;;4.93;1.55;;;17.20;72.50;;;;;;5037091;28;20060;-85
2021/12/29 00:19:03;;;;;;;4.13;1.27;;;17.20;72.50;;;;;;5035876;28;20144;-84
2021/12/29 00:21:29;;;;;;;3.40;1.40;;;17.20;72.50;;;;;;5035743;28;20036;-84
2021/12/29 00:23:59;;;;;;;7.05;1.55;;;17.20;72.50;;;;;;5035471;28;20026;-84
2021/12/29 00:26:26;;;;;;;4.78;1.40;;;17.20;72.50;;;;;;5034775;28;20029;-84
2021/12/29 00:28:52;;;;;;;5.80;1.40;;;17.20;72.60;;;;;;5034847;28;20030;-84
2021/12/29 00:31:17;;;;;;;4.32;1.30;;;17.10;72.60;;;;;;5037296;28;20554;-83
2021/12/29 00:33:43;;;;;;;5.47;1.50;;;17.10;72.60;;;;;;5035936;28;20041;-82
2021/12/29 00:36:09;;;;;;;3.15;0.93;;;17.10;72.80;;;;;;5036171;28;20022;-83
2021/12/29 00:38:35;;;;;;;3.33;1.38;;;17.10;73.00;;;;;;5037409;28;20087;-84
2021/12/29 00:41:00;;;;;;;3.13;0.90;;;17.10;73.70;;;;;;5036858;28;20082;-84
2021/12/29 00:43:26;;;;;;;4.63;1.52;;;17.00;72.90;;;;;;5037701;28;20416;-83
2021/12/29 00:45:52;;;;;;;5.38;1.17;;;17.00;73.10;;;;;;5019218;28;20025;-86
2021/12/29 00:48:19;;;;;;;4.57;1.30;;;17.00;73.20;;;;;;5036107;28;20032;-84
2021/12/29 00:50:45;;;;;;;3.83;1.25;;;17.00;73.30;;;;;;5018183;28;20030;-83
2021/12/29 00:53:11;;;;;;;5.05;1.40;;;17.00;73.30;;;;;;5038804;28;20033;-83
2021/12/29 00:55:37;;;;;;;4.72;1.08;;;17.00;73.40;;;;;;5039701;28;20013;-84
2021/12/29 00:58:07;;;;;;;3.78;1.77;;;17.00;73.40;;;;;;5021713;28;20038;-84
2021/12/29 01:00:37;;;;;;;4.32;1.30;;;16.90;73.40;;;;;;5041008;28;20111;-84
2021/12/29 01:03:03;;;;;;;5.18;1.40;;;16.90;73.40;;;;;;5022075;28;20040;-83
2021/12/29 01:05:30;;;;;;;6.00;1.40;;;16.90;73.40;;;;;;5039473;28;20115;-84
2021/12/29 01:07:56;;;;;;;3.15;1.00;;;16.90;73.30;;;;;;5039215;28;20021;-82
2021/12/29 01:10:21;;;;;;;4.05;1.45;;;17.00;73.40;;;;;;5039248;28;20044;-79
2021/12/29 01:12:59;;;;;;;4.05;1.33;;;17.00;73.40;;;;;;5038865;28;20044;-81
2021/12/29 01:15:32;;;;;;;3.97;1.08;;;17.00;73.40;;;;;;5039911;28;20029;-83
2021/12/29 01:18:00;;;;;;;2.92;1.05;;;17.00;73.40;;;;;;5038849;28;21213;-83
2021/12/29 01:20:27;;;;;;;6.07;1.38;;;17.00;73.40;;;;;;5039136;28;20032;-84
2021/12/29 01:22:53;;;;;;;4.47;1.13;;;16.90;73.40;;;;;;5021124;28;20428;-83
2021/12/29 01:25:21;;;;;;;3.92;1.38;;;17.00;73.40;;;;;;5038783;28;20033;-84
2021/12/29 01:27:47;;;;;;;2.97;0.80;;;17.00;73.50;;;;;;5038674;28;20064;-82
2021/12/29 01:30:14;;;;;;;4.32;1.08;;;17.00;73.50;;;;;;5039309;28;20056;-84
2021/12/29 01:32:40;;;;;;;5.13;1.17;;;17.00;73.50;;;;;;5020508;28;20033;-79
2021/12/29 01:35:07;;;;;;;4.05;1.00;;;17.00;73.50;;;;;;5039330;28;20094;-82
2021/12/29 01:37:33;;;;;;;3.58;1.10;;;17.00;73.50;;;;;;5039929;28;20026;-79
2021/12/29 01:39:59;;;;;;;2.70;0.93;;;17.00;73.50;;;;;;5039081;28;20037;-83
2021/12/29 01:42:24;;;;;;;4.47;1.45;;;17.00;73.50;;;;;;5039341;28;20032;-85
2021/12/29 01:44:50;;;;;;;4.97;1.40;;;17.00;73.40;;;;;;5019972;28;20159;-80
2021/12/29 01:47:27;;;;;;;8.27;1.30;;;17.00;73.40;;;;;;5039645;28;20473;-84
2021/12/29 01:49:54;;;;;;;4.07;1.27;;;17.00;73.40;;;;;;5038299;28;20055;-84
2021/12/29 01:52:24;;;;;;;4.72;1.10;;;17.00;73.50;;;;;;5037579;28;20078;-84
2021/12/29 01:54:50;;;;;;;3.47;0.90;;;17.00;73.50;;;;;;5038614;28;20481;-83
2021/12/29 01:57:17;;;;;;;3.20;1.20;;;17.00;73.50;;;;;;5039227;28;20057;-84
2021/12/29 01:59:43;;;;;;;3.20;1.02;;;17.00;73.60;;;;;;5038375;28;20401;-83
2021/12/29 02:02:14;;;;;;;4.15;1.23;;;17.00;73.70;;;;;;5021414;28;20076;-78
2021/12/29 02:04:42;;;;;;;4.13;1.00;;;17.00;73.60;;;;;;5038023;28;20062;-79
2021/12/29 02:07:08;;;;;;;2.75;0.80;;;17.00;73.60;;;;;;5040719;28;20029;-83
2021/12/29 02:09:34;;;;;;;5.47;1.20;;;17.00;73.60;;;;;;5038753;28;20068;-83
2021/12/29 02:12:01;;;;;;;4.20;1.00;;;17.00;73.60;;;;;;5038158;28;20056;-80
2021/12/29 02:14:26;;;;;;;2.95;1.10;;;17.00;73.60;;;;;;5037975;28;20040;-84
2021/12/29 02:16:52;;;;;;;5.25;1.38;;;17.00;73.60;;;;;;5038239;28;20028;-80
2021/12/29 02:19:18;;;;;;;3.85;1.40;;;17.00;73.60;;;;;;5037931;28;20035;-86
2021/12/29 02:21:53;;;;;;;2.67;0.98;;;17.00;73.60;;;;;;5038583;28;20017;-83
2021/12/29 02:24:21;;;;;;;3.08;0.73;;;17.00;73.50;;;;;;5038015;28;20399;-84
2021/12/29 02:26:47;;;;;;;3.45;1.30;;;17.00;73.50;;;;;;5037503;28;20044;-82
2021/12/29 02:29:16;;;;;;;5.15;1.25;;;17.00;74.10;;;;;;5037558;28;20563;-84
2021/12/29 02:31:44;;;;;;;2.58;0.75;;;17.00;73.40;;;;;;5037517;28;20404;-82
2021/12/29 02:34:11;;;;;;;3.63;1.15;;;17.00;73.40;;;;;;5038019;28;20534;-80
2021/12/29 02:36:43;;;;;;;3.13;0.68;;;17.00;73.40;;;;;;5038107;28;20025;-83
2021/12/29 02:39:16;;;;;;;2.40;0.80;;;17.00;73.30;;;;;;5037636;28;20112;-78
2021/12/29 02:41:46;;;;;;;4.97;0.88;;;17.00;73.30;;;;;;5037693;28;20033;-83
2021/12/29 02:44:18;;;;;;;5.05;1.10;;;17.00;73.20;;;;;;5037601;28;20025;-83
2021/12/29 02:46:44;;;;;;;3.83;0.93;;;17.00;73.20;;;;;;5037579;28;20051;-82
2021/12/29 02:49:10;;;;;;;3.38;1.40;;;17.00;73.20;;;;;;5019337;28;20029;-81
2021/12/29 02:51:35;;;;;;;4.85;0.88;;;17.00;73.20;;;;;;5018952;28;20121;-82
2021/12/29 02:54:03;;;;;;;4.53;0.75;;;17.00;73.30;;;;;;5036665;28;20059;-82
2021/12/29 02:56:30;;;;;;;4.38;1.05;;;17.00;73.40;;;;;;5038116;28;20053;-82
2021/12/29 02:58:57;;;;;;;4.15;0.90;;;17.00;73.30;;;;;;5040651;28;20032;-83
2021/12/29 03:01:24;;;;;;;3.20;0.93;;;17.00;73.40;;;;;;5037862;28;20450;-82
2021/12/29 03:03:50;;;;;;;2.70;0.90;;;17.00;73.40;;;;;;5037016;28;20045;-83
2021/12/29 03:06:16;;;;;;;3.35;0.98;;;17.00;73.50;;;;;;5037262;28;20362;-83
2021/12/29 03:08:42;;;;;;;4.13;0.82;;;17.00;73.40;;;;;;5037446;28;20170;-85
2021/12/29 03:11:09;;;;;;;2.75;0.98;;;17.10;73.60;;;;;;5038072;28;20111;-84
2021/12/29 03:13:38;;;;;;;5.43;1.40;;;17.00;73.40;;;;;;5037791;28;20029;-83
2021/12/29 03:16:04;;;;;;;2.08;0.77;;;17.00;73.40;;;;;;5036690;28;20028;-82
2021/12/29 03:18:30;;;;;;;4.53;1.10;;;17.10;73.50;;;;;;5035939;28;20037;-83
2021/12/29 03:20:57;;;;;;;3.42;0.90;;;17.00;73.40;;;;;;5036969;28;20037;-83
2021/12/29 03:23:22;;;;;;;2.47;1.13;;;17.10;73.40;;;;;;5037212;28;20048;-83
2021/12/29 03:25:49;;;;;;;4.10;0.90;;;17.10;73.40;;;;;;5036722;28;20021;-83
2021/12/29 03:28:16;;;;;;;2.88;0.77;;;17.10;73.30;;;;;;5037617;28;20025;-84
2021/12/29 03:30:43;;;;;;;3.47;1.17;;;17.10;73.20;;;;;;5037794;28;20033;-82
2021/12/29 03:33:09;;;;;;;3.10;0.95;;;17.10;73.10;;;;;;5037396;28;20523;-84
2021/12/29 03:35:37;;;;;;;2.85;0.75;;;17.10;73.10;;;;;;5037745;28;20029;-86
2021/12/29 03:38:05;;;;;;;2.90;0.80;;;17.10;73.00;;;;;;5036686;28;20021;-81
2021/12/29 03:40:31;;;;;;;2.33;0.70;;;17.10;72.90;;;;;;5037642;28;20443;-84
2021/12/29 03:42:57;;;;;;;2.83;1.10;;;17.10;73.00;;;;;;5036868;28;20034;-85
2021/12/29 03:45:23;;;;;;;2.75;0.88;;;17.10;72.90;;;;;;5019035;28;20037;-82
2021/12/29 03:47:49;;;;;;;3.03;1.13;;;17.10;72.90;;;;;;5035998;28;20032;-82
2021/12/29 03:50:15;;;;;;;4.47;1.25;;;17.10;72.90;;;;;;5018927;28;20029;-85
2021/12/29 03:52:41;;;;;;;2.10;0.70;;;17.10;72.90;;;;;;5036520;28;20040;-85
2021/12/29 03:55:09;;;;;;;2.00;0.65;;;17.10;73.00;;;;;;5036554;28;20505;-85
2021/12/29 03:57:35;;;;;;;2.28;0.98;;;17.10;73.10;;;;;;5036427;28;20025;-86
2021/12/29 04:00:03;;;;;;;4.15;0.85;;;17.10;73.20;;;;;;5036376;28;20095;-84
2021/12/29 04:02:28;;;;;;;4.70;0.75;;;17.10;73.20;;;;;;5053290;28;20485;-84
2021/12/29 04:04:54;;;;;;;4.07;0.80;;;17.10;73.20;;;;;;5036464;28;20529;-85
2021/12/29 04:07:20;;;;;;;2.67;0.88;;;17.10;73.20;;;;;;5036615;28;20029;-83
2021/12/29 04:09:45;;;;;;;3.00;0.93;;;17.10;73.20;;;;;;5035751;28;20037;-82
2021/12/29 04:12:11;;;;;;;2.47;1.02;;;17.10;73.20;;;;;;5017351;28;20033;-80
2021/12/29 04:14:37;;;;;;;2.78;0.80;;;17.10;73.20;;;;;;5036691;28;20033;-82
2021/12/29 04:17:09;;;;;;;3.60;1.00;;;17.10;73.20;;;;;;5038216;28;20112;-81
2021/12/29 04:22:21;;;;;;;2.78;0.63;;;17.10;73.10;;;;;;5036303;28;20036;-83
2021/12/29 04:24:47;;;;;;;3.53;0.88;;;17.10;73.10;;;;;;5051215;28;20455;-80
2021/12/29 04:27:13;;;;;;;3.42;0.90;;;17.10;73.00;;;;;;5035398;28;20021;-83
2021/12/29 04:29:38;;;;;;;2.17;1.02;;;17.10;72.90;;;;;;5037284;28;20033;-83
2021/12/29 04:32:04;;;;;;;2.83;0.70;;;17.10;72.80;;;;;;5036277;28;20416;-81
2021/12/29 04:34:30;;;;;;;1.88;0.50;;;17.10;72.80;;;;;;5038179;28;20037;-84
2021/12/29 04:36:55;;;;;;;3.60;0.90;;;17.10;72.70;;;;;;5035669;28;20503;-83
2021/12/29 04:39:21;;;;;;;3.00;1.00;;;17.10;72.70;;;;;;5017571;28;20036;-85
2021/12/29 04:41:47;;;;;;;1.77;0.85;;;17.10;72.80;;;;;;5035816;28;20048;-84
2021/12/29 04:44:12;;;;;;;3.47;1.30;;;17.10;72.80;;;;;;5036195;28;20060;-82
2021/12/29 04:46:40;;;;;;;3.65;0.82;;;17.10;72.70;;;;;;5036191;28;20072;-83
2021/12/29 04:49:11;;;;;;;2.38;0.65;;;17.10;72.70;;;;;;5036493;28;20115;-83
2021/12/29 04:51:43;;;;;;;2.58;0.60;;;17.10;72.90;;;;;;5035790;28;20029;-82
2021/12/29 04:54:09;;;;;;;2.25;0.60;;;17.10;72.90;;;;;;5036259;28;20398;-81
2021/12/29 04:56:35;;;;;;;3.08;1.00;;;17.10;73.00;;;;;;5035996;28;20509;-82
2021/12/29 04:59:02;;;;;;;4.55;1.00;;;17.10;73.00;;;;;;5017923;28;20504;-83
2021/12/29 05:01:28;;;;;;;2.10;0.68;;;17.10;73.10;;;;;;5035429;28;20385;-82
2021/12/29 05:03:54;;;;;;;4.07;0.70;;;17.10;73.10;;;;;;5035532;28;20021;-84
2021/12/29 05:08:48;;;;;;;3.28;1.00;;;17.10;73.00;;;;;;5036833;28;20045;-83
2021/12/29 05:11:15;;;;;;;4.50;0.80;;;17.10;73.10;;;;;;5035110;28;20029;-82
2021/12/29 05:13:43;;;;;;;3.70;1.00;;;17.10;73.10;;;;;;5035324;28;20037;-83
2021/12/29 05:16:08;;;;;;;2.35;0.85;;;17.00;73.00;;;;;;5036397;28;20556;-82
2021/12/29 05:18:36;;;;;;;3.65;0.98;;;17.00;73.00;;;;;;5035869;28;20124;-82
2021/12/29 05:21:04;;;;;;;3.72;1.02;;;17.00;73.00;;;;;;5035300;28;20029;-83
2021/12/29 05:23:30;;;;;;;4.05;0.85;;;17.00;73.00;;;;;;5035764;28;20037;-84
2021/12/29 05:25:56;;;;;;;2.60;0.82;;;17.10;72.90;;;;;;5036789;28;20022;-84
2021/12/29 05:28:24;;;;;;;2.42;1.00;;;17.10;72.90;;;;;;5035154;28;20535;-83
2021/12/29 05:30:50;;;;;;;3.33;0.98;;;17.10;72.80;;;;;;5036260;28;20025;-82
2021/12/29 05:33:16;;;;;;;3.13;1.00;;;17.10;72.80;;;;;;5034896;28;20107;-85
2021/12/29 05:35:42;;;;;;;2.58;0.95;;;17.00;72.60;;;;;;5034446;28;20524;-83
2021/12/29 05:38:08;;;;;;;3.50;0.90;;;17.00;72.70;;;;;;5036897;28;20679;-84
2021/12/29 05:40:34;;;;;;;2.47;1.10;;;17.10;72.80;;;;;;5039072;28;20049;-83
2021/12/29 05:42:59;;;;;;;4.28;1.25;;;17.10;72.70;;;;;;5038885;28;20021;-85
2021/12/29 05:45:26;;;;;;;3.53;1.17;;;17.10;72.80;;;;;;5038861;28;20029;-82
2021/12/29 05:47:52;;;;;;;3.25;1.23;;;17.00;72.70;;;;;;5038609;28;20483;-80
2021/12/29 05:50:21;;;;;;;3.25;1.02;;;17.10;72.70;;;;;;5037958;28;20065;-79
2021/12/29 05:52:47;;;;;;;4.25;0.98;;;17.00;72.80;;;;;;5037740;28;20400;-80
2021/12/29 05:55:13;;;;;;;3.03;0.80;;;17.00;72.90;;;;;;5038538;28;20033;-82
2021/12/29 05:57:40;;;;;;;3.72;0.98;;;17.00;72.80;;;;;;5042466;28;20105;-84
2021/12/29 06:00:12;;;;;;;4.03;0.95;;;17.00;72.90;;;;;;5039433;28;20075;-80
2021/12/29 06:02:38;;;;;;;4.38;0.90;;;17.00;72.90;;;;;;5039708;28;20033;-80
2021/12/29 06:05:06;;;;;;;2.63;1.00;;;17.00;72.90;;;;;;5038878;28;20135;-81
2021/12/29 06:07:33;;;;;;;4.78;1.05;;;17.00;72.90;;;;;;5038967;28;20040;-79
2021/12/29 06:09:58;;;;;;;3.30;0.95;;;17.00;73.00;;;;;;5019884;28;20083;-84
2021/12/29 06:12:24;;;;;;;3.83;1.25;;;17.00;73.00;;;;;;5020139;28;20481;-84
2021/12/29 06:14:51;;;;;;;3.22;1.02;;;17.00;72.90;;;;;;5038632;28;20043;-80
2021/12/29 06:17:16;;;;;;;5.30;1.63;;;17.00;73.00;;;;;;5038746;28;20120;-80
2021/12/29 06:19:42;;;;;;;2.60;0.98;;;17.00;72.90;;;;;;5038134;28;20116;-79
2021/12/29 06:22:11;;;;;;;4.00;1.05;;;17.00;73.00;;;;;;5039111;28;20075;-84
2021/12/29 06:24:41;;;;;;;4.80;1.30;;;17.00;72.80;;;;;;5039055;28;20104;-83
2021/12/29 06:27:07;;;;;;;2.90;1.15;;;17.00;72.80;;;;;;5038150;28;20040;-83
2021/12/29 06:29:33;;;;;;;3.75;1.42;;;17.00;72.70;;;;;;5038145;28;20120;-84
2021/12/29 06:32:00;;;;;;;5.35;1.25;;;17.00;72.70;;;;;;5037900;28;20029;-84
2021/12/29 06:34:26;;;;;;;2.83;1.10;;;17.00;72.70;;;;;;5019989;28;20395;-82
2021/12/29 06:36:52;;;;;;;4.15;1.48;;;17.00;72.70;;;;;;5037394;28;20023;-84
2021/12/29 06:39:17;;;;;;;3.05;1.08;;;17.00;72.70;;;;;;5038776;28;21172;-83
2021/12/29 06:41:44;;;;;;;3.33;0.93;;;17.00;72.70;;;;;;5038477;28;20029;-84
2021/12/29 06:44:10;;;;;;;4.32;1.40;;;17.00;72.70;;;;;;5037401;28;20033;-77
2021/12/29 06:46:35;;;;;;;4.97;1.20;;;17.00;72.70;;;;;;5037510;28;20021;-84
2021/12/29 06:49:01;;;;;;;4.60;1.50;;;17.00;72.70;;;;;;5037708;28;20026;-82
2021/12/29 06:51:27;;;;;;;5.10;1.15;;;17.00;72.80;;;;;;5037261;28;20504;-83
2021/12/29 06:53:52;;;;;;;3.95;1.00;;;17.00;72.80;;;;;;5038561;28;20033;-84
2021/12/29 06:56:19;;;;;;;6.00;1.65;;;17.00;72.90;;;;;;5039501;28;20485;-85
2021/12/29 06:58:45;;;;;;;3.72;1.05;;;17.00;73.60;;;;;;5040056;28;20059;-84
2021/12/29 07:01:12;;;;;;;4.35;1.17;;;17.00;72.90;;;;;;5037686;28;20493;-85
2021/12/29 07:03:38;;;;;;;3.80;1.10;;;17.00;72.90;;;;;;5040826;28;20024;-87
2021/12/29 07:06:04;;;;;;;3.70;1.50;;;17.00;72.90;;;;;;5044794;28;20025;-86
2021/12/29 07:08:29;;;;;;;3.15;1.08;;;17.00;73.00;;;;;;5030897;28;20558;-87
2021/12/29 07:10:55;;;;;;;3.85;1.25;;;17.00;72.90;;;;;;5072518;28;20017;-85
2021/12/29 07:13:21;;;;;;;4.97;1.20;;;17.00;72.90;;;;;;5066053;28;20024;-86
2021/12/29 07:15:47;;;;;;;5.60;1.10;;;17.00;73.00;;;;;;5026856;28;20044;-82
2021/12/29 07:18:13;;;;;;;3.58;1.35;;;17.00;73.00;;;;;;5033788;28;20021;-80
2021/12/29 07:20:39;;;;;;;6.05;1.17;;;16.90;72.80;;;;;;5052629;28;20029;-81
2021/12/29 07:23:05;;;;;;;2.58;1.10;;;17.00;72.90;;;;;;5052675;28;20078;-80
2021/12/29 07:25:31;;;;;;;4.38;1.23;;;17.00;72.80;;;;;;5050336;28;20100;-81
2021/12/29 07:27:57;;;;;;;5.55;1.10;;;17.00;72.80;;;;;;5051944;28;20507;-80
2021/12/29 07:30:23;;;;;;;3.70;1.10;;;17.00;72.70;;;;;;5052121;28;20031;-81
2021/12/29 07:32:48;;;;;;;4.85;1.40;;;17.00;72.70;;;;;;5051754;28;20021;-82
2021/12/29 07:35:15;;;;;;;3.13;1.17;;;17.00;72.70;;;;;;5051896;28;20033;-82
2021/12/29 07:37:40;;;;;;;4.90;1.20;;;17.00;72.80;;;;;;5051245;28;20070;-81
2021/12/29 07:40:08;;;;;;;3.80;1.05;;;17.00;72.90;;;;;;5052152;28;20033;-83
2021/12/29 07:42:36;;;;;;;4.65;1.48;;;17.00;72.90;;;;;;5051943;28;20037;-84
2021/12/29 07:45:06;;;;;;;3.83;1.20;;;17.00;72.80;;;;;;5051423;28;20065;-80
2021/12/29 07:47:32;;;;;;;5.80;0.98;;;17.00;72.90;;;;;;5051630;28;20028;-87
2021/12/29 07:49:57;;;;;;;3.28;0.93;;;17.00;73.10;;;;;;5029947;28;20033;-90
2021/12/29 07:52:23;;;;;;;4.32;1.25;;;17.00;73.10;;;;;;5034429;28;20027;-87
2021/12/29 07:54:48;;;;;;;4.13;1.23;;;17.00;73.20;;;;;;5051534;28;20183;-83
2021/12/29 07:57:14;;;;;;;3.80;1.00;;;17.00;73.30;;;;;;5051438;28;20025;-85
2021/12/29 07:59:40;;;;;;;3.53;1.13;;;17.00;73.40;;;;;;5033312;28;20104;-78
2021/12/29 08:02:14;;;;;;;4.50;0.93;;;17.00;73.40;;;;;;5031962;28;20092;-81
2021/12/29 08:04:40;;;;;;;4.65;1.10;;;17.00;74.20;;;;;;5013637;28;20167;-77
2021/12/29 08:07:06;;;;;;;4.03;1.00;;;17.00;73.50;;;;;;5013815;28;20104;-87
2021/12/29 08:09:32;;;;;;;4.25;1.67;;;17.00;73.60;;;;;;5031349;28;20072;-83
2021/12/29 08:11:57;;;;;;;5.93;1.25;;;17.00;73.50;;;;;;5033064;28;20017;-83
2021/12/29 08:14:23;;;;;;;2.63;1.00;;;17.10;73.60;;;;;;5027594;28;20037;-85
2021/12/29 08:16:49;;;;;;;3.47;1.35;;;;;;;;;;5030863;28;20021;-86
2021/12/29 08:19:16;;;;;;;4.03;1.10;;;;;;;;;;5014084;28;20064;-86
2021/12/29 08:21:42;;;;;;;4.32;1.15;;;;;;;;;;5051221;28;20021;-83
2021/12/29 08:24:08;;;;;;;5.88;1.20;;;;;;;;;;5051803;28;20032;-84
2021/12/29 08:26:34;;;;;;;5.15;0.88;;;;;;;;;;5051285;28;20057;-84
2021/12/29 08:29:01;;;;;;;5.30;2.55;;;;;;;;;;5050982;28;20059;-87
2021/12/29 08:31:27;;;;;;;7.07;3.45;;;;;;;;;;5055851;28;20421;-85
2021/12/29 08:33:54;;;;;;;8.02;2.25;;;;;;;;;;5050069;28;20037;-84
2021/12/29 08:36:20;;;;;;;4.95;2.55;;;;;;;;;;5050977;28;20028;-78
2021/12/29 08:38:46;;;;;;;6.45;3.10;;;;;;;;;;5050956;28;20070;-79
2021/12/29 08:41:12;;;;;;;4.15;2.13;;;;;;;;;;5050873;28;20473;-77
2021/12/29 08:43:38;;;;;;;7.95;2.92;;;;;;;;;;5051236;28;20029;-77
2021/12/29 08:46:04;;;;;;;7.28;3.08;;;;;;;;;;5039411;28;20029;-81
2021/12/29 08:48:30;;;;;;;6.20;2.30;;;;;;;;;;5040809;28;20064;-82
2021/12/29 08:50:59;;;;;;;6.88;2.20;;;;;;;;;;5038656;28;20018;-79
2021/12/29 08:53:25;;;;;;;6.88;2.83;;;;;;;;;;5035459;28;20028;-82
2021/12/29 08:55:51;;;;;;;6.43;2.50;;;;;;;;;;5031690;28;20114;-79
2021/12/29 08:58:18;;;;;;;5.38;2.10;;;;;;;;;;5041862;28;20017;-77
2021/12/29 09:00:44;;;;;;;7.10;2.10;;;;;;;;;;5015216;28;20033;-76
2021/12/29 09:03:11;;;;;;;5.53;2.30;;;;;;;;;;5033030;28;20021;-77
2021/12/29 09:05:37;;;;;;;8.70;2.45;;;;;;;;;;5051153;28;20508;-77
2021/12/29 09:08:03;;;;;;;7.80;2.58;;;;;;;;;;5032613;28;20044;-77
2021/12/29 09:10:29;;;;;;;7.85;2.28;;;;;;;;;;5050706;28;20057;-77
2021/12/29 09:12:55;;;;;;;6.18;2.17;;;;;;;;;;5051556;28;20021;-77
2021/12/29 09:15:22;;;;;;;7.30;2.10;;;;;;;;;;5054607;28;20483;-77
2021/12/29 09:17:48;;;;;;;6.68;2.00;;;;;;;;;;5054355;28;20021;-79
2021/12/29 09:20:24;;;;;;;4.22;1.50;;;;;;;;;;5054649;28;20036;-78
2021/12/29 09:22:51;;;;;;;6.53;2.00;;;;;;;;;;5054280;28;20503;-78
2021/12/29 09:25:17;;;;;;;6.28;2.22;;;;;;;;;;5054448;28;20496;-80
2021/12/29 09:27:47;;;;;;;6.15;2.05;;;;;;;;;;5054100;28;20551;-81
2021/12/29 09:30:13;;;;;;;5.18;1.83;;;;;;;;;;5036498;28;20052;-80
2021/12/29 09:32:39;;;;;;;9.52;2.17;;;;;;;;;;5054493;28;20393;-80
2021/12/29 09:35:05;;;;;;;9.70;2.17;;;;;;;;;;5054230;28;20095;-79
2021/12/29 09:37:31;;;;;;;10.23;2.28;;;;;;;;;;5054157;28;20104;-79
2021/12/29 09:39:58;;;;;;;12.57;3.45;;;17.10;73.60;;;;;;5053830;28;20027;-78
2021/12/29 09:42:24;;;;;;;8.30;2.10;;;;;;;;;;5054127;28;20009;-79
2021/12/29 09:44:52;;;;;;;7.22;2.22;;;;;;;;;;5053646;28;20041;-78
2021/12/29 09:47:18;;;;;;;8.27;2.78;;;;;;;;;;5035426;28;20407;-77
2021/12/29 09:49:44;;;;;;;6.50;1.88;;;;;;;;;;5053659;28;20033;-78
2021/12/29 09:52:10;;;;;;;7.22;2.25;;;;;;;;;;5053962;28;20040;-75
2021/12/29 09:54:36;;;;;;;6.03;2.15;;;;;;;;;;5052069;28;20072;-79
2021/12/29 09:57:03;;;;;;;8.05;2.60;;;;;;;;;;5053594;28;20476;-78
2021/12/29 09:59:29;;;;;;;7.82;1.85;;;;;;;;;;5053716;28;20029;-76
2021/12/29 10:01:57;;;;;;;6.43;2.22;;;;;;;;;;5035681;28;20025;-78
2021/12/29 10:04:23;;;;;;;5.20;1.63;;;;;;;;;;5053557;28;20017;-78
2021/12/29 10:06:49;;;;;;;6.30;2.10;;;;;;;;;;5042747;28;20079;-78
2021/12/29 10:09:17;;;;;;;10.15;2.17;;;;;;;;;;5027754;28;20488;-79
2021/12/29 10:11:45;;;;;;;12.73;2.85;;;;;;;;;;5032663;28;20032;-78
2021/12/29 10:14:12;;;;;;;7.68;2.28;;;;;;;;;;5047091;28;20117;-80
2021/12/29 10:16:38;;;;;;;6.35;2.10;;;;;;;;;;5047673;28;20013;-80
2021/12/29 10:19:06;;;;;;;7.50;1.90;;;;;;;;;;5030619;28;20033;-80
2021/12/29 10:21:33;;;;;;;9.38;1.83;;;;;;;;;;5025419;28;20013;-78
2021/12/29 10:24:01;;;;;;;6.90;2.08;;;;;;;;;;5014715;28;20036;-78
2021/12/29 10:26:28;;;;;;;8.20;1.80;;;;;;;;;;5050077;28;20024;-78
2021/12/29 10:29:02;;;;;;;6.63;1.60;;;;;;;;;;5052833;28;20028;-79
2021/12/29 10:31:29;;;;;;;5.40;1.85;;;;;;;;;;5048939;28;20083;-79
2021/12/29 10:33:57;;;;;;;4.20;1.42;;;;;;;;;;5035263;28;20121;-79
2021/12/29 10:36:25;;;;;;;6.07;2.22;;;;;;;;;;5037526;28;20096;-79
2021/12/29 10:38:54;;;;;;;7.97;2.15;;;;;;;;;;5052070;28;20025;-79
2021/12/29 10:41:20;;;;;;;6.85;1.90;;;;;;;;;;5026569;28;20496;-78
2021/12/29 10:44:05;;;;;;;7.55;2.05;;;;;;;;;;5033786;28;20083;-77
2021/12/29 10:46:33;;;;;;;7.50;2.13;;;;;;;;;;5039162;28;20492;-78
2021/12/29 10:49:00;;;;;;;6.40;2.45;;;;;;;;;;5034672;28;20032;-77
2021/12/29 10:51:31;;;;;;;9.23;2.03;;;;;;;;;;5033417;28;20033;-77
2021/12/29 10:54:14;;;;;;;5.38;1.98;;;;;;;;;;5032236;28;20044;-77
2021/12/29 10:56:42;;;;;;;9.80;2.00;;;;;;;;;;5033293;28;20033;-77
2021/12/29 10:59:12;;;;;;;6.88;2.10;;;;;;;;;;5026873;28;20090;-77
2021/12/29 11:01:38;;;;;;;5.47;1.60;;;;;;;;;;5063128;28;20028;-76
2021/12/29 11:04:04;;;;;;;6.57;1.98;;;;;;;;;;5062619;28;20025;-77
2021/12/29 11:06:30;;;;;;;4.50;1.77;;;;;;;;;;5052581;28;20033;-75
2021/12/29 11:08:58;;;;;;;7.60;2.40;;;;;;;;;;5052462;28;20400;-78
2021/12/29 11:11:35;;;;;;;5.78;2.22;;;;;;;;;;5041579;28;20051;-76
2021/12/29 11:14:07;;;;;;;7.18;1.73;;;;;;;;;;5051003;28;20056;-77
2021/12/29 11:16:33;;;;;;;7.20;2.05;;;;;;;;;;5045427;28;20128;-77
2021/12/29 11:18:59;;;;;;;6.05;2.17;;;;;;;;;;5031876;28;20036;-78
2021/12/29 11:21:31;;;;;;;5.13;1.60;;;;;;;;;;5032200;28;20041;-79
2021/12/29 11:23:57;;;;;;;6.07;1.90;;;;;;;;;;5026466;28;20159;-78
2021/12/29 11:26:30;;;;;;;5.65;1.80;;;;;;;;;;5022729;28;20021;-77
2021/12/29 11:29:06;;;;;;;5.18;1.70;;;;;;;;;;5051727;28;20493;-77
2021/12/29 11:31:33;;;;;;;6.28;1.75;;;;;;;;;;5051917;28;20017;-78
2021/12/29 11:34:11;;;;;;;10.75;2.25;;;;;;;;;;5051600;28;20043;-79
2021/12/29 11:36:37;;;;;;;6.25;1.63;;;;;;;;;;5052011;28;20033;-77
2021/12/29 11:39:03;;;;;;;12.23;2.15;;;;;;;;;;5051644;28;20032;-77
2021/12/29 11:41:29;;;;;;;4.20;1.52;;;;;;;;;;5051885;28;20914;-77
2021/12/29 11:43:56;;;;;;;11.82;2.42;;;;;;;;;;5051557;28;20035;-78
2021/12/29 11:46:24;;;;;;;6.97;1.73;;;;;;;;;;5051326;28;20412;-78
2021/12/29 11:48:52;;;;;;;5.47;2.22;;;;;;;;;;5033484;28;20419;-78
2021/12/29 11:51:34;;;;;;;5.50;1.90;;;17.30;75.00;;;;;;5051669;28;20021;-79
2021/12/29 11:54:06;;;;;;;6.50;1.50;;;19.40;70.90;;;;;;5017229;28;20045;-83
2021/12/29 11:56:40;;;;;;;5.72;1.80;;;19.50;70.30;;;;;;5014122;28;20052;-83
2021/12/29 11:59:06;;;;;;;4.68;1.52;;;;;;;;;;5032007;28;20037;-84
2021/12/29 12:01:32;;;;;;;6.55;1.88;;;;;;;;;;5032202;28;20025;-84
2021/12/29 12:04:00;;;;;;;5.35;2.00;;;;;;;;;;5035772;28;20029;-85
2021/12/29 12:06:31;;;;;;;7.00;1.58;;;;;;;;;;5031632;28;20018;-87
2021/12/29 12:09:16;;;;;;;5.38;1.42;;;;;;;;;;5024593;28;20028;-83
2021/12/29 12:11:53;;;;;;;4.35;1.40;;;;;;;;;;5051373;28;20412;-84
2021/12/29 12:14:25;;;;;;;6.68;2.30;;;;;;;;;;5051072;28;20116;-75
2021/12/29 12:16:51;;;;;;;4.95;1.75;;;;;;;;;;5051022;28;20017;-83
2021/12/29 12:19:19;;;;;;;4.65;1.45;;;;;;;;;;5071197;28;20506;-82
2021/12/29 12:21:45;;;;;;;5.53;1.75;;;;;;;;;;5044847;28;20036;-81
2021/12/29 12:24:20;;;;;;;3.65;1.48;;;;;;;;;;5051595;28;20029;-86
2021/12/29 12:26:56;;;;;;;6.15;1.75;;;;;;;;;;5033384;28;20028;-88
2021/12/29 12:29:37;;;;;;;5.32;0.93;;;19.50;70.20;;;;;;5051953;28;20028;-87
2021/12/29 12:32:06;;;;;;;4.05;1.17;;;19.50;70.50;;;;;;5038753;28;20112;-86
2021/12/29 12:34:33;;;;;;;2.45;1.17;;;19.50;70.40;;;;;;5051713;28;20036;-89
2021/12/29 12:37:00;;;;;;;6.18;1.40;;;19.50;70.40;;;;;;5049921;28;20040;-85
2021/12/29 12:39:28;;;;;;;4.60;1.08;;;19.60;70.50;;;;;;5052016;28;20028;-84
2021/12/29 12:41:56;;;;;;;2.35;1.10;;;19.60;70.50;;;;;;5044571;28;20584;-84
2021/12/29 12:44:36;;;;;;;3.03;1.20;;;19.60;70.60;;;;;;5031120;28;20024;-85
2021/12/29 12:47:13;;;;;;;3.85;1.20;;;19.60;70.60;;;;;;5020770;28;20045;-83
2021/12/29 12:49:52;;;;;;;5.38;1.23;;;19.70;70.60;;;;;;5056153;28;20126;-88
2021/12/29 12:52:23;;;;;;;4.85;1.30;;;19.70;70.70;;;;;;5055689;28;20450;-83
2021/12/29 12:55:05;;;;;;;3.85;1.30;;;19.70;70.70;;;;;;5037575;28;20408;-81
2021/12/29 12:57:45;;;;;;;4.53;1.15;;;19.70;70.80;;;;;;5055572;28;20029;-84
2021/12/29 13:00:14;;;;;;;3.70;1.05;;;19.70;70.80;;;;;;5053948;28;20021;-76
2021/12/29 13:02:59;;;;;;;3.03;0.95;;;19.70;70.80;;;;;;5037824;28;20027;-75
2021/12/29 13:05:31;;;;;;;4.05;0.88;;;19.70;70.80;;;;;;5055667;28;20031;-83
2021/12/29 13:08:20;;;;;;;4.38;0.80;;;19.70;70.80;;;;;;5055789;28;20103;-78
2021/12/29 13:10:54;;;;;;;13.23;1.23;;;19.70;70.90;;;;;;5038243;28;20028;-86
2021/12/29 13:13:35;;;;;;;2.50;0.93;;;19.70;70.80;;;;;;5055436;28;20028;-85
2021/12/29 13:16:04;;;;;;;3.55;1.02;;;19.70;70.80;;;;;;5054728;28;20108;-78
2021/12/29 13:18:31;;;;;;;2.97;1.00;;;19.70;70.80;;;;;;5046091;28;20669;-84
2021/12/29 13:21:00;;;;;;;2.38;1.05;;;19.70;70.80;;;;;;5034803;28;20022;-86
2021/12/29 13:23:26;;;;;;;2.70;1.00;;;19.70;70.80;;;;;;5034700;28;20026;-83
2021/12/29 13:25:53;;;;;;;3.35;0.88;;;19.80;70.90;;;;;;5017045;28;20036;-87